createdAt,value
2018-10-09T00:00:41.921Z,3.40
2018-10-09T00:03:10.242Z,3.40
2018-10-09T00:05:38.436Z,3.50
2018-10-09T00:08:06.615Z,3.70
2018-10-09T00:10:34.796Z,3.60
2018-10-09T00:13:02.991Z,3.60
2018-10-09T00:15:31.150Z,3.40
2018-10-09T00:17:59.331Z,3.40
2018-10-09T00:20:27.824Z,3.50
2018-10-09T00:22:57.947Z,3.20
2018-10-09T00:25:26.404Z,3.20
2018-10-09T00:27:55.209Z,3.50
2018-10-09T00:30:23.793Z,3.20
2018-10-09T00:32:52.005Z,3.60
2018-10-09T00:35:20.176Z,3.50
2018-10-09T00:37:48.368Z,3.40
2018-10-09T00:40:17.097Z,3.50
2018-10-09T00:42:45.292Z,3.30
2018-10-09T00:45:13.509Z,3.40
2018-10-09T00:47:41.696Z,3.40
2018-10-09T00:50:10.536Z,3.20
2018-10-09T00:52:38.743Z,3.30
2018-10-09T00:55:07.485Z,3.30
2018-10-09T00:57:35.761Z,3.30
2018-10-09T01:00:04.434Z,3.60
2018-10-09T01:02:32.697Z,3.30
2018-10-09T01:05:00.902Z,3.20
2018-10-09T01:07:29.124Z,3.20
2018-10-09T01:09:57.372Z,3.00
2018-10-09T01:12:25.553Z,3.20
2018-10-09T01:14:53.816Z,3.00
2018-10-09T01:17:22.085Z,3.20
2018-10-09T01:19:50.300Z,3.30
2018-10-09T01:22:18.529Z,3.10
2018-10-09T01:24:46.756Z,3.50
2018-10-09T01:27:14.952Z,3.00
2018-10-09T01:29:43.182Z,3.20
2018-10-09T01:32:11.408Z,3.10
2018-10-09T01:34:39.703Z,3.10
2018-10-09T01:37:08.074Z,3.10
2018-10-09T01:39:36.480Z,3.10
2018-10-09T01:42:04.728Z,3.50
2018-10-09T01:44:32.925Z,3.50
2018-10-09T01:47:01.092Z,3.30
2018-10-09T01:49:33.038Z,3.60
2018-10-09T01:52:01.302Z,3.50
2018-10-09T01:54:29.512Z,3.60
2018-10-09T01:56:57.696Z,3.30
2018-10-09T01:59:25.886Z,3.40
2018-10-09T02:01:54.219Z,3.60
2018-10-09T02:04:22.470Z,3.00
2018-10-09T02:06:50.748Z,3.10
2018-10-09T02:09:19.028Z,3.00
2018-10-09T02:11:47.228Z,3.00
2018-10-09T02:14:15.496Z,3.30
2018-10-09T02:16:43.817Z,2.90
2018-10-09T02:19:12.028Z,3.00
2018-10-09T02:21:40.235Z,3.20
2018-10-09T02:24:08.467Z,3.10
2018-10-09T02:26:37.728Z,3.20
2018-10-09T02:29:06.055Z,3.50
2018-10-09T02:31:34.275Z,3.00
2018-10-09T02:34:02.559Z,3.30
2018-10-09T02:36:30.840Z,3.10
2018-10-09T02:38:59.092Z,3.50
2018-10-09T02:41:27.292Z,3.10
2018-10-09T02:43:55.555Z,3.00
2018-10-09T02:46:23.779Z,3.10
2018-10-09T02:48:52.046Z,2.90
2018-10-09T02:51:20.251Z,3.20
2018-10-09T02:53:48.515Z,3.30
2018-10-09T02:56:16.844Z,3.10
2018-10-09T02:58:45.053Z,3.50
2018-10-09T03:01:13.292Z,3.20
2018-10-09T03:03:41.503Z,3.20
2018-10-09T03:06:09.723Z,3.30
2018-10-09T03:08:38.058Z,3.10
2018-10-09T03:11:06.693Z,3.20
2018-10-09T03:13:34.969Z,3.30
2018-10-09T03:16:03.196Z,3.20
2018-10-09T03:18:31.411Z,3.30
2018-10-09T03:20:59.668Z,3.20
2018-10-09T03:23:27.848Z,3.10
2018-10-09T03:25:56.151Z,3.00
2018-10-09T03:28:24.355Z,3.10
2018-10-09T03:30:52.644Z,3.30
2018-10-09T03:33:20.953Z,3.00
2018-10-09T03:35:49.159Z,3.10
2018-10-09T03:38:17.395Z,3.30
2018-10-09T03:40:45.687Z,3.00
2018-10-09T03:43:14.076Z,3.00
2018-10-09T03:45:42.268Z,3.30
2018-10-09T03:48:10.542Z,3.00
2018-10-09T03:50:38.840Z,3.00
2018-10-09T03:53:07.117Z,3.30
2018-10-09T03:55:37.271Z,3.30
2018-10-09T03:58:05.732Z,3.10
2018-10-09T04:00:34.031Z,3.00
2018-10-09T04:03:02.330Z,3.00
2018-10-09T04:05:30.587Z,3.00
2018-10-09T04:07:58.783Z,3.00
2018-10-09T04:10:27.019Z,3.10
2018-10-09T04:12:55.367Z,2.80
2018-10-09T04:15:23.625Z,2.80
2018-10-09T04:17:51.839Z,2.90
2018-10-09T04:20:20.045Z,3.10
2018-10-09T04:22:48.240Z,3.30
2018-10-09T04:25:16.454Z,3.10
2018-10-09T04:27:44.627Z,3.10
2018-10-09T04:30:12.800Z,3.10
2018-10-09T04:32:40.991Z,3.30
2018-10-09T04:35:09.190Z,3.10
2018-10-09T04:37:40.984Z,3.10
2018-10-09T04:40:09.200Z,3.30
2018-10-09T04:42:37.397Z,3.00
2018-10-09T04:45:05.708Z,3.10
2018-10-09T04:47:33.940Z,3.00
2018-10-09T04:50:02.157Z,3.10
2018-10-09T04:52:30.420Z,3.00
2018-10-09T04:54:58.613Z,3.10
2018-10-09T04:57:26.832Z,2.90
2018-10-09T04:59:55.008Z,3.20
2018-10-09T05:02:23.180Z,3.30
2018-10-09T05:04:51.359Z,3.10
2018-10-09T05:07:19.553Z,3.10
2018-10-09T05:09:47.688Z,3.30
2018-10-09T05:12:15.860Z,3.10
2018-10-09T05:14:44.046Z,3.50
2018-10-09T05:17:12.224Z,3.40
2018-10-09T05:19:40.352Z,3.10
2018-10-09T05:22:08.484Z,3.50
2018-10-09T05:24:36.620Z,3.30
2018-10-09T05:27:04.751Z,3.10
2018-10-09T05:29:32.888Z,3.30
2018-10-09T05:32:01.028Z,3.20
2018-10-09T05:34:29.176Z,3.40
2018-10-09T05:36:57.310Z,3.50
2018-10-09T05:39:25.451Z,3.40
2018-10-09T05:41:53.587Z,3.30
2018-10-09T05:44:21.963Z,3.20
2018-10-09T05:46:49.868Z,3.50
2018-10-09T05:49:18.007Z,3.30
2018-10-09T05:51:46.158Z,3.60
2018-10-09T05:54:14.293Z,3.80
2018-10-09T05:56:42.415Z,3.60
2018-10-09T05:59:10.548Z,3.70
2018-10-09T06:01:38.672Z,3.70
2018-10-09T06:04:06.806Z,3.80
2018-10-09T06:06:34.936Z,4.00
2018-10-09T06:09:03.083Z,4.10
2018-10-09T06:11:31.199Z,3.80
2018-10-09T06:13:59.344Z,3.90
2018-10-09T06:16:27.480Z,4.20
2018-10-09T06:18:55.721Z,4.30
2018-10-09T06:21:23.888Z,4.10
2018-10-09T06:23:52.035Z,4.40
2018-10-09T06:26:20.180Z,4.40
2018-10-09T06:28:48.299Z,4.50
2018-10-09T06:31:16.431Z,4.60
2018-10-09T06:33:44.553Z,4.70
2018-10-09T06:36:12.684Z,4.60
2018-10-09T06:38:40.871Z,4.80
2018-10-09T06:41:08.944Z,5.00
2018-10-09T06:43:37.064Z,4.90
2018-10-09T06:46:05.209Z,4.90
2018-10-09T06:48:33.342Z,5.00
2018-10-09T06:51:01.483Z,5.10
2018-10-09T06:53:29.821Z,5.20
2018-10-09T06:55:57.916Z,5.50
2018-10-09T06:58:26.128Z,5.30
2018-10-09T07:00:54.281Z,5.40
2018-10-09T07:03:22.432Z,5.40
2018-10-09T07:05:50.589Z,5.90
2018-10-09T07:08:19.000Z,5.90
2018-10-09T07:10:47.150Z,5.90
2018-10-09T07:13:15.309Z,6.10
2018-10-09T07:15:43.452Z,6.30
2018-10-09T07:18:11.614Z,6.40
2018-10-09T07:20:39.877Z,6.60
2018-10-09T07:23:08.041Z,6.90
2018-10-09T07:25:36.193Z,7.20
2018-10-09T07:28:04.337Z,7.60
2018-10-09T07:30:32.494Z,7.60
2018-10-09T07:33:00.653Z,7.90
2018-10-09T07:35:28.802Z,8.20
2018-10-09T07:37:57.000Z,8.50
2018-10-09T07:40:25.166Z,8.70
2018-10-09T07:42:53.369Z,8.90
2018-10-09T07:45:21.514Z,9.10
2018-10-09T07:47:49.695Z,9.20
2018-10-09T07:50:17.872Z,9.40
2018-10-09T07:52:46.049Z,9.70
2018-10-09T07:55:14.205Z,9.70
2018-10-09T07:57:42.376Z,9.60
2018-10-09T08:00:10.563Z,10.10
2018-10-09T08:02:38.712Z,10.10
2018-10-09T08:05:06.908Z,10.30
2018-10-09T08:07:35.136Z,10.40
2018-10-09T08:10:03.339Z,10.60
2018-10-09T08:12:31.513Z,10.70
2018-10-09T08:14:59.692Z,11.00
2018-10-09T08:17:27.918Z,11.40
2018-10-09T08:19:56.173Z,11.70
2018-10-09T08:22:24.425Z,12.20
2018-10-09T08:24:52.609Z,12.70
2018-10-09T08:27:20.765Z,12.80
2018-10-09T08:29:48.956Z,13.20
2018-10-09T08:32:18.191Z,13.30
2018-10-09T08:34:46.409Z,13.30
2018-10-09T08:37:14.640Z,13.30
2018-10-09T08:39:42.866Z,13.40
2018-10-09T08:42:11.083Z,13.50
2018-10-09T08:44:39.292Z,13.80
2018-10-09T08:47:07.501Z,14.10
2018-10-09T08:49:35.717Z,14.20
2018-10-09T08:52:03.970Z,14.10
2018-10-09T08:54:32.080Z,14.00
2018-10-09T08:57:00.219Z,13.80
2018-10-09T08:59:28.404Z,13.70
2018-10-09T09:01:56.612Z,13.80
2018-10-09T09:04:24.787Z,13.90
2018-10-09T09:06:52.972Z,14.10
2018-10-09T09:09:21.151Z,14.40
2018-10-09T09:11:49.322Z,14.70
2018-10-09T09:14:17.527Z,15.10
2018-10-09T09:16:45.693Z,15.30
2018-10-09T09:19:13.867Z,15.60
2018-10-09T09:21:42.048Z,15.80
2018-10-09T09:24:11.237Z,15.90
2018-10-09T09:26:39.501Z,16.10
2018-10-09T09:29:07.598Z,16.30
2018-10-09T09:31:35.761Z,16.40
2018-10-09T09:34:03.950Z,16.30
2018-10-09T09:36:32.137Z,15.90
2018-10-09T09:39:00.285Z,15.70
2018-10-09T09:41:28.505Z,15.60
2018-10-09T09:43:56.660Z,15.40
2018-10-09T09:46:24.812Z,15.40
2018-10-09T09:48:52.961Z,15.60
2018-10-09T09:51:21.148Z,15.80
2018-10-09T09:53:49.325Z,15.90
2018-10-09T09:56:17.517Z,16.00
2018-10-09T09:58:45.916Z,15.90
2018-10-09T10:01:13.878Z,15.90
2018-10-09T10:03:42.423Z,15.70
2018-10-09T10:06:10.577Z,15.50
2018-10-09T10:08:39.142Z,15.40
2018-10-09T10:11:07.351Z,15.50
2018-10-09T10:13:35.565Z,15.80
2018-10-09T10:16:03.752Z,16.10
2018-10-09T10:18:32.021Z,16.30
2018-10-09T10:21:00.194Z,16.60
2018-10-09T10:23:28.361Z,16.70
2018-10-09T10:25:56.566Z,16.70
2018-10-09T10:28:24.778Z,16.80
2018-10-09T10:30:52.954Z,16.70
2018-10-09T10:33:21.126Z,16.60
2018-10-09T10:35:49.379Z,16.50
2018-10-09T10:38:17.569Z,16.40
2018-10-09T10:40:45.749Z,16.50
2018-10-09T10:43:13.955Z,16.70
2018-10-09T10:45:42.109Z,16.90
2018-10-09T10:48:13.678Z,17.00
2018-10-09T10:50:41.890Z,17.00
2018-10-09T10:53:10.164Z,17.10
2018-10-09T10:55:38.353Z,17.10
2018-10-09T10:58:07.105Z,17.20
2018-10-09T11:00:35.321Z,17.00
2018-10-09T11:03:03.505Z,17.00
2018-10-09T11:05:31.690Z,17.00
2018-10-09T11:07:59.972Z,17.10
2018-10-09T11:10:28.070Z,17.20
2018-10-09T11:12:56.367Z,17.10
2018-10-09T11:15:24.518Z,17.20
2018-10-09T11:17:52.694Z,17.20
2018-10-09T11:20:20.991Z,17.10
2018-10-09T11:22:49.323Z,17.20
2018-10-09T11:25:21.253Z,17.30
2018-10-09T11:27:49.425Z,17.40
2018-10-09T11:30:17.756Z,17.50
2018-10-09T11:32:45.963Z,17.50
2018-10-09T11:35:15.529Z,17.60
2018-10-09T11:37:43.772Z,17.60
2018-10-09T11:40:12.098Z,17.60
2018-10-09T11:42:40.330Z,17.50
2018-10-09T11:45:08.687Z,17.40
2018-10-09T11:47:37.056Z,17.40
2018-10-09T11:50:05.454Z,17.50
2018-10-09T11:52:33.745Z,17.50
2018-10-09T11:55:01.920Z,17.50
2018-10-09T11:57:30.069Z,17.60
2018-10-09T11:59:58.272Z,17.70
2018-10-09T12:02:26.440Z,17.70
2018-10-09T12:04:54.639Z,17.60
2018-10-09T12:07:25.893Z,17.60
2018-10-09T12:09:54.073Z,17.60
2018-10-09T12:12:22.262Z,17.60
2018-10-09T12:14:50.441Z,17.70
2018-10-09T12:17:21.981Z,17.80
2018-10-09T12:19:50.174Z,17.80
2018-10-09T12:22:18.359Z,17.90
2018-10-09T12:24:46.622Z,18.00
2018-10-09T12:27:18.801Z,18.00
2018-10-09T12:29:47.980Z,18.00
2018-10-09T12:32:16.380Z,18.00
2018-10-09T12:34:44.586Z,17.90
2018-10-09T12:37:16.086Z,17.90
2018-10-09T12:39:44.303Z,17.90
2018-10-09T12:42:15.809Z,17.90
2018-10-09T12:44:44.051Z,17.80
2018-10-09T12:47:12.301Z,17.70
2018-10-09T12:49:40.598Z,17.70
2018-10-09T12:52:08.797Z,17.70
2018-10-09T12:54:36.984Z,17.70
2018-10-09T12:57:05.248Z,17.80
2018-10-09T12:59:33.409Z,17.90
2018-10-09T13:02:01.778Z,17.90
2018-10-09T13:04:29.993Z,17.90
2018-10-09T13:06:59.021Z,17.90
2018-10-09T13:09:27.278Z,17.90
2018-10-09T13:11:55.432Z,17.90
2018-10-09T13:14:23.609Z,17.80
2018-10-09T13:16:51.814Z,17.80
2018-10-09T13:19:20.009Z,17.90
2018-10-09T13:21:48.650Z,18.00
2018-10-09T13:24:16.391Z,17.80
2018-10-09T13:26:44.569Z,17.70
2018-10-09T13:29:12.762Z,17.70
2018-10-09T13:31:40.965Z,17.60
2018-10-09T13:34:09.243Z,17.70
2018-10-09T13:36:37.422Z,17.70
2018-10-09T13:39:07.037Z,17.80
2018-10-09T13:41:35.302Z,17.90
2018-10-09T13:44:03.558Z,18.00
2018-10-09T13:46:31.765Z,18.00
2018-10-09T13:49:00.034Z,18.10
2018-10-09T13:51:28.270Z,18.10
2018-10-09T13:53:56.486Z,18.00
2018-10-09T13:56:24.762Z,18.00
2018-10-09T13:58:52.988Z,17.90
2018-10-09T14:01:21.195Z,17.80
2018-10-09T14:03:49.405Z,17.70
2018-10-09T14:06:17.647Z,17.70
2018-10-09T14:08:45.792Z,17.70
2018-10-09T14:11:14.046Z,17.70
2018-10-09T14:13:42.266Z,17.70
2018-10-09T14:16:10.500Z,17.70
2018-10-09T14:18:38.709Z,17.60
2018-10-09T14:21:06.881Z,17.60
2018-10-09T14:23:35.156Z,17.60
2018-10-09T14:26:03.361Z,17.60
2018-10-09T14:28:31.582Z,17.60
2018-10-09T14:30:59.805Z,17.60
2018-10-09T14:33:28.040Z,17.50
2018-10-09T14:35:56.237Z,17.40
2018-10-09T14:38:24.417Z,17.40
2018-10-09T14:40:52.614Z,17.30
2018-10-09T14:43:20.778Z,17.30
2018-10-09T14:45:48.955Z,17.20
2018-10-09T14:48:17.128Z,17.20
2018-10-09T14:50:45.338Z,17.10
2018-10-09T14:53:13.594Z,17.10
2018-10-09T14:55:41.785Z,17.10
2018-10-09T14:58:10.105Z,17.20
2018-10-09T15:00:38.301Z,17.20
2018-10-09T15:03:06.504Z,17.20
2018-10-09T15:05:34.655Z,17.10
2018-10-09T15:08:02.813Z,17.00
2018-10-09T15:10:31.997Z,17.00
2018-10-09T15:13:00.169Z,16.90
2018-10-09T15:15:28.392Z,16.80
2018-10-09T15:17:56.596Z,16.70
2018-10-09T15:20:24.783Z,16.70
2018-10-09T15:22:52.974Z,16.50
2018-10-09T15:25:24.416Z,16.40
2018-10-09T15:27:52.578Z,16.30
2018-10-09T15:30:20.757Z,16.10
2018-10-09T15:32:49.081Z,16.00
2018-10-09T15:35:17.376Z,15.90
2018-10-09T15:37:45.651Z,15.90
2018-10-09T15:40:13.858Z,15.80
2018-10-09T15:42:42.076Z,15.70
2018-10-09T15:45:10.253Z,15.60
2018-10-09T15:47:38.561Z,15.60
2018-10-09T15:50:10.002Z,15.50
2018-10-09T15:52:50.417Z,15.40
2018-10-09T15:55:18.607Z,15.30
2018-10-09T15:57:50.738Z,15.30
2018-10-09T16:00:22.709Z,15.20
2018-10-09T16:02:51.897Z,15.10
2018-10-09T16:05:23.488Z,15.00
2018-10-09T16:07:53.685Z,14.90
2018-10-09T16:10:22.889Z,14.80
2018-10-09T16:12:52.094Z,14.70
2018-10-09T16:15:20.341Z,14.60
2018-10-09T16:17:51.604Z,14.50
2018-10-09T16:20:20.805Z,14.30
2018-10-09T16:22:51.040Z,14.20
2018-10-09T16:25:19.183Z,14.00
2018-10-09T16:27:48.408Z,13.80
2018-10-09T16:30:27.568Z,13.70
2018-10-09T16:32:57.758Z,13.50
2018-10-09T16:35:36.008Z,13.40
2018-10-09T16:38:04.236Z,13.30
2018-10-09T16:40:33.508Z,13.20
2018-10-09T16:43:01.661Z,13.00
2018-10-09T16:45:29.899Z,12.90
2018-10-09T16:47:59.109Z,12.80
2018-10-09T16:50:27.252Z,12.70
2018-10-09T16:52:55.419Z,12.50
2018-10-09T16:55:23.562Z,12.40
2018-10-09T16:57:51.727Z,12.30
2018-10-09T17:00:19.906Z,12.20
2018-10-09T17:02:48.064Z,12.00
2018-10-09T17:05:16.300Z,11.80
2018-10-09T17:07:44.500Z,11.80
2018-10-09T17:10:12.665Z,11.50
2018-10-09T17:12:40.837Z,11.40
2018-10-09T17:15:08.998Z,11.30
2018-10-09T17:17:37.162Z,11.20
2018-10-09T17:26:07.892Z,10.90
2018-10-09T17:28:36.192Z,10.60
2018-10-09T17:31:04.347Z,10.40
2018-10-09T17:33:32.629Z,10.50
2018-10-09T17:36:00.781Z,10.40
2018-10-09T17:38:28.971Z,10.00
2018-10-09T17:40:57.169Z,10.00
2018-10-09T17:43:25.367Z,10.20
2018-10-09T17:45:53.563Z,9.80
2018-10-09T17:48:21.749Z,10.00
2018-10-09T17:50:49.918Z,10.10
2018-10-09T17:53:18.134Z,9.80
2018-10-09T17:55:46.305Z,9.60
2018-10-09T17:58:14.476Z,9.80
2018-10-09T18:00:42.640Z,9.60
2018-10-09T18:03:10.838Z,9.80
2018-10-09T18:05:38.981Z,9.70
2018-10-09T18:08:07.194Z,9.40
2018-10-09T18:10:35.365Z,9.20
2018-10-09T18:13:03.566Z,9.20
2018-10-09T18:15:31.816Z,9.10
2018-10-09T18:18:00.074Z,9.00
2018-10-09T18:20:28.396Z,8.90
2018-10-09T18:22:56.611Z,8.80
2018-10-09T18:25:25.640Z,8.90
2018-10-09T18:27:53.861Z,8.60
2018-10-09T18:30:22.010Z,8.70
2018-10-09T18:32:50.485Z,8.60
2018-10-09T18:35:18.353Z,8.70
2018-10-09T18:37:46.514Z,8.60
2018-10-09T18:40:14.678Z,8.60
2018-10-09T18:42:42.861Z,8.50
2018-10-09T18:45:12.009Z,8.60
2018-10-09T18:47:41.557Z,8.80
2018-10-09T18:50:10.041Z,8.30
2018-10-09T18:52:38.733Z,8.40
2018-10-09T18:55:07.869Z,8.30
2018-10-09T18:57:36.049Z,8.30
2018-10-09T19:00:04.392Z,8.20
2018-10-09T19:02:32.556Z,8.30
2018-10-09T19:05:00.733Z,8.20
2018-10-09T19:07:28.914Z,8.20
2018-10-09T19:09:57.718Z,8.20
2018-10-09T19:12:25.901Z,8.00
2018-10-09T19:14:54.078Z,8.20
2018-10-09T19:17:22.263Z,8.00
2018-10-09T19:19:50.504Z,8.00
2018-10-09T19:22:18.657Z,7.90
2018-10-09T19:24:46.817Z,7.90
2018-10-09T19:27:14.992Z,7.90
2018-10-09T19:29:43.166Z,7.60
2018-10-09T19:32:12.397Z,7.60
2018-10-09T19:34:40.572Z,7.60
2018-10-09T19:37:08.726Z,7.50
2018-10-09T19:39:36.968Z,7.50
2018-10-09T19:42:05.084Z,7.60
2018-10-09T19:44:33.241Z,7.50
2018-10-09T19:47:01.410Z,7.20
2018-10-09T19:49:29.606Z,7.30
2018-10-09T19:51:57.756Z,7.30
2018-10-09T19:54:25.935Z,7.20
2018-10-09T19:56:54.097Z,7.20
2018-10-09T19:59:22.343Z,7.20
2018-10-09T20:01:50.452Z,7.30
2018-10-09T20:04:18.639Z,7.30
2018-10-09T20:06:46.809Z,7.20
2018-10-09T20:09:15.010Z,7.10
2018-10-09T20:11:43.242Z,7.10
2018-10-09T20:14:13.008Z,7.10
2018-10-09T20:16:41.193Z,7.40
2018-10-09T20:19:10.301Z,7.00
2018-10-09T20:21:39.480Z,7.00
2018-10-09T20:24:07.741Z,7.00
2018-10-09T20:26:36.281Z,7.00
2018-10-09T20:29:07.901Z,7.00
2018-10-09T20:31:36.062Z,6.80
2018-10-09T20:34:04.234Z,6.90
2018-10-09T20:36:32.402Z,6.70
2018-10-09T20:39:00.573Z,6.90
2018-10-09T20:41:28.742Z,6.70
2018-10-09T20:43:56.909Z,6.80
2018-10-09T20:46:25.132Z,6.70
2018-10-09T20:48:53.292Z,6.70
2018-10-09T20:51:21.454Z,6.60
2018-10-09T20:53:49.616Z,6.60
2018-10-09T20:56:17.800Z,6.60
2018-10-09T20:58:45.953Z,6.50
2018-10-09T21:01:14.230Z,6.60
2018-10-09T21:03:42.383Z,6.40
2018-10-09T21:06:10.611Z,6.50
2018-10-09T21:08:38.747Z,6.50
2018-10-09T21:11:07.136Z,6.20
2018-10-09T21:13:35.313Z,6.20
2018-10-09T21:16:03.534Z,6.20
2018-10-09T21:18:31.696Z,6.20
2018-10-09T21:20:59.882Z,6.20
2018-10-09T21:23:28.029Z,6.20
2018-10-09T21:25:56.191Z,6.20
2018-10-09T21:28:24.356Z,6.30
2018-10-09T21:30:52.512Z,6.10
2018-10-09T21:33:20.677Z,6.10
2018-10-09T21:35:48.829Z,6.30
2018-10-09T21:38:17.982Z,6.30
2018-10-09T21:40:46.185Z,6.20
2018-10-09T21:43:14.365Z,6.30
2018-10-09T21:45:43.529Z,6.20
2018-10-09T21:48:11.691Z,6.20
2018-10-09T21:50:39.862Z,6.10
2018-10-09T21:53:08.029Z,6.20
2018-10-09T21:55:36.203Z,6.30
2018-10-09T21:58:04.368Z,6.40
2018-10-09T22:00:36.769Z,6.30
2018-10-09T22:03:04.947Z,6.10
2018-10-09T22:05:33.111Z,6.00
2018-10-09T22:08:01.291Z,5.90
2018-10-09T22:10:29.470Z,5.90
2018-10-09T22:12:57.632Z,5.90
2018-10-09T22:15:25.818Z,6.20
2018-10-09T22:17:53.981Z,5.80
2018-10-09T22:20:22.161Z,5.70
2018-10-09T22:22:50.336Z,5.70
2018-10-09T22:25:18.493Z,5.70
2018-10-09T22:27:46.669Z,5.80
2018-10-09T22:30:14.836Z,5.60
2018-10-09T22:32:42.988Z,5.70
2018-10-09T22:35:11.145Z,5.60
2018-10-09T22:37:39.313Z,5.70
2018-10-09T22:40:07.507Z,5.90
2018-10-09T22:42:35.677Z,5.70
2018-10-09T22:45:03.860Z,5.70
2018-10-09T22:47:35.213Z,5.60
2018-10-09T22:50:03.411Z,5.60
2018-10-09T22:52:31.580Z,5.60
2018-10-09T22:54:59.736Z,5.60
2018-10-09T22:57:27.906Z,6.00
2018-10-09T22:59:56.067Z,5.80
2018-10-09T23:02:24.254Z,5.80
2018-10-09T23:04:52.408Z,6.00
2018-10-09T23:07:20.605Z,5.80
2018-10-09T23:09:48.762Z,5.80
2018-10-09T23:12:16.941Z,5.70
2018-10-09T23:14:50.832Z,5.70
2018-10-09T23:17:22.034Z,5.70
2018-10-09T23:19:50.267Z,5.90
2018-10-09T23:22:18.483Z,5.90
2018-10-09T23:24:46.624Z,5.70
2018-10-09T23:27:14.783Z,5.70
2018-10-09T23:29:42.920Z,5.80
2018-10-09T23:32:11.069Z,5.60
2018-10-09T23:34:39.208Z,5.60
2018-10-09T23:37:07.625Z,5.60
2018-10-09T23:39:35.771Z,5.70
2018-10-09T23:42:03.930Z,5.80
2018-10-09T23:44:32.070Z,5.70
2018-10-09T23:47:00.261Z,5.70
2018-10-09T23:49:28.413Z,5.70
2018-10-09T23:51:56.568Z,5.80
2018-10-09T23:54:24.704Z,5.80
2018-10-09T23:56:52.855Z,5.90
2018-10-09T23:59:20.988Z,5.90
